Time;durP1;ratioP1;P1;durP2;ratioP2;P2;SDS_P1;SDS_P2;PMS_P1;PMS_P2;Temp;Humidity;BMP_temperature;BMP_pressure;BME280_temperature;BME280_humidity;BME280_pressure;Samples;Min_cycle;Max_cycle;Signal;HPM_P1;HPM_P2
2023/03/15 00:01:28;;;;;;;;;;;;;;;9.04;63.94;95767.48;108831;1251;103710;-77
2023/03/15 00:03:56;;;;;;;;;;;;;;;9.01;63.90;95763.29;108865;1251;101370;-77
2023/03/15 00:06:24;;;;;;;;;;;;;;;9.02;63.90;95770.08;108764;1251;100078;-78
2023/03/15 00:08:52;;;;;;;;;;;;;;;9.00;63.96;95765.64;108783;1251;95797;-78
2023/03/15 00:11:20;;;;;;;;;;;;;;;8.99;64.10;95768.93;108697;1251;96551;-77
2023/03/15 00:13:47;;;;;;;;;;;;;;;8.98;64.06;95777.76;108821;1251;103813;-78
2023/03/15 00:16:17;;;;;;;;;;;;;;;8.98;63.96;95779.85;108832;1251;101301;-77
2023/03/15 00:18:45;;;;;;;;;;;;;;;8.97;64.04;95782.42;108792;1251;99820;-77
2023/03/15 00:21:14;;;;;;;;;;;;;;;8.97;64.23;95786.23;108791;1251;95760;-78
2023/03/15 00:23:41;;;;;;;;;;;;;;;8.98;64.19;95785.60;108836;1251;95975;-77
2023/03/15 00:26:09;;;;;;;;;;;;;;;8.97;64.21;95788.06;108870;1250;103360;-78
2023/03/15 00:28:38;;;;;;;;;;;;;;;8.97;64.37;95796.84;108775;1251;101489;-77
2023/03/15 00:31:12;;;;;;;;;;;;;;;8.96;64.41;95801.45;108811;1251;100045;-77
2023/03/15 00:33:40;;;;;;;;;;;;;;;8.95;64.63;95810.83;108822;1251;95526;-78
2023/03/15 00:36:09;;;;;;;;;;;;;;;8.92;64.99;95827.88;108813;1251;96058;-76
2023/03/15 00:38:38;;;;;;;;;;;;;;;8.90;65.47;95847.73;108872;1251;104043;-77
2023/03/15 00:41:06;;;;;;;;;;;;;;;8.71;65.20;95866.80;108865;1250;101536;-76
2023/03/15 00:43:34;;;;;;;;;;;;;;;8.41;65.25;95878.73;108820;1251;99544;-77
2023/03/15 00:46:02;;;;;;;;;;;;;;;8.18;65.58;95887.77;108791;1251;95851;-78
2023/03/15 00:48:31;;;;;;;;;;;;;;;7.98;66.16;95895.87;108767;1251;95656;-76
2023/03/15 00:51:04;;;;;;;;;;;;;;;7.82;66.64;95902.41;108734;1251;103063;-76
2023/03/15 00:53:32;;;;;;;;;;;;;;;7.70;66.83;95913.80;108838;1251;101392;-78
2023/03/15 00:56:04;;;;;;;;;;;;;;;7.60;67.23;95916.45;108845;1251;100074;-76
2023/03/15 00:58:32;;;;;;;;;;;;;;;7.45;67.40;95919.56;108820;1251;95792;-77
2023/03/15 01:01:00;;;;;;;;;;;;;;;7.25;67.70;95930.43;108681;1251;95640;-76
2023/03/15 01:03:28;;;;;;;;;;;;;;;7.08;68.30;95931.94;108695;1251;113247;-76
2023/03/15 01:05:56;;;;;;;;;;;;;;;6.91;68.58;95940.35;108647;1251;100738;-75
2023/03/15 01:08:24;;;;;;;;;;;;;;;6.75;68.85;95945.15;108730;1251;99050;-76
2023/03/15 01:10:52;;;;;;;;;;;;;;;6.61;68.76;95947.78;108812;1251;95941;-76
2023/03/15 01:13:20;;;;;;;;;;;;;;;6.50;68.86;95958.20;108851;1251;95795;-76
2023/03/15 01:15:48;;;;;;;;;;;;;;;6.39;69.70;95963.88;108755;1251;103850;-76
2023/03/15 01:18:16;;;;;;;;;;;;;;;6.29;69.87;95965.77;108842;1251;101350;-76
2023/03/15 01:20:45;;;;;;;;;;;;;;;6.19;69.69;95969.54;108813;1251;99522;-77
2023/03/15 01:23:12;;;;;;;;;;;;;;;6.10;69.94;95979.77;108657;1251;95676;-77
2023/03/15 01:25:40;;;;;;;;;;;;;;;6.02;70.21;95993.31;108830;1251;95636;-75
2023/03/15 01:28:08;;;;;;;;;;;;;;;5.91;70.38;95999.66;108848;1251;103513;-76
2023/03/15 01:30:36;;;;;;;;;;;;;;;5.84;70.94;96010.10;108665;1251;100448;-78
2023/03/15 01:33:04;;;;;;;;;;;;;;;5.73;70.96;96021.48;108799;1251;99922;-78
2023/03/15 01:35:32;;;;;;;;;;;;;;;5.67;70.85;96040.17;108814;1251;95835;-76
2023/03/15 01:38:00;;;;;;;;;;;;;;;5.59;70.80;96051.54;108797;1253;95633;-76
2023/03/15 01:40:28;;;;;;;;;;;;;;;5.41;70.74;96059.42;108817;1250;102066;-76
2023/03/15 01:43:05;;;;;;;;;;;;;;;5.27;70.42;96061.05;108846;1254;101457;-77
2023/03/15 01:45:51;;;;;;;;;;;;;;;5.17;70.31;96068.52;108766;1251;99928;-77
2023/03/15 01:48:21;;;;;;;;;;;;;;;5.11;70.21;96077.34;108846;1251;95764;-76
2023/03/15 01:50:50;;;;;;;;;;;;;;;5.00;69.96;96093.17;108624;1251;96597;-76
2023/03/15 01:53:17;;;;;;;;;;;;;;;4.89;70.07;96107.13;108818;1251;103708;-76
2023/03/15 01:55:45;;;;;;;;;;;;;;;4.83;70.45;96119.60;108869;1251;101065;-76
2023/03/15 01:58:14;;;;;;;;;;;;;;;4.75;70.13;96127.98;108770;1251;108589;-75
2023/03/15 02:00:42;;;;;;;;;;;;;;;4.68;69.99;96128.20;108783;1251;95591;-76
2023/03/15 02:03:14;;;;;;;;;;;;;;;4.56;69.83;96133.45;108591;1256;95746;-75
2023/03/15 02:05:45;;;;;;;;;;;;;;;4.52;69.81;96141.34;108800;1251;103731;-76
2023/03/15 02:08:15;;;;;;;;;;;;;;;4.45;69.88;96146.36;108586;1251;102301;-76
2023/03/15 02:10:45;;;;;;;;;;;;;;;4.40;69.85;96160.31;108781;1251;99999;-78
2023/03/15 02:13:15;;;;;;;;;;;;;;;4.41;70.02;96168.17;108793;1251;95549;-78
2023/03/15 02:15:45;;;;;;;;;;;;;;;4.44;69.95;96164.66;108778;1251;95599;-76
2023/03/15 02:18:13;;;;;;;;;;;;;;;4.51;69.96;96167.73;108823;1251;103636;-75
2023/03/15 02:20:41;;;;;;;;;;;;;;;4.52;69.66;96168.23;108795;1254;101335;-75
2023/03/15 02:23:14;;;;;;;;;;;;;;;4.52;69.66;96168.44;108798;1252;100607;-76
2023/03/15 02:26:00;;;;;;;;;;;;;;;4.53;69.73;96174.77;108795;1251;95582;-76
2023/03/15 02:28:29;;;;;;;;;;;;;;;4.49;69.84;96180.06;108803;1251;95800;-76
2023/03/15 02:30:57;;;;;;;;;;;;;;;4.44;69.62;96195.03;108830;1251;103478;-76
2023/03/15 02:33:26;;;;;;;;;;;;;;;4.39;69.33;96197.97;108842;1251;101235;-75
2023/03/15 02:35:54;;;;;;;;;;;;;;;4.31;69.26;96204.77;108791;1251;100081;-77
2023/03/15 02:38:22;;;;;;;;;;;;;;;4.17;69.41;96206.91;108848;1251;95572;-76
2023/03/15 02:40:52;;;;;;;;;;;;;;;4.09;69.51;96214.29;108816;1251;95641;-77
2023/03/15 02:43:23;;;;;;;;;;;;;;;4.04;69.66;96216.68;108740;1252;103495;-77
2023/03/15 02:45:51;;;;;;;;;;;;;;;3.94;69.63;96217.02;108825;1250;101335;-75
2023/03/15 02:48:20;;;;;;;;;;;;;;;3.78;69.77;96220.27;108757;1251;99913;-77
2023/03/15 02:50:48;;;;;;;;;;;;;;;3.73;69.72;96223.53;108564;1251;95710;-75
2023/03/15 02:53:16;;;;;;;;;;;;;;;3.75;69.72;96225.17;108834;1251;95591;-75
2023/03/15 02:55:43;;;;;;;;;;;;;;;3.78;69.80;96226.50;108823;1251;103230;-76
2023/03/15 02:58:11;;;;;;;;;;;;;;;3.77;69.76;96228.41;108850;1251;101350;-77
2023/03/15 03:00:39;;;;;;;;;;;;;;;3.72;69.71;96230.66;108531;1251;99085;-75
2023/03/15 03:03:10;;;;;;;;;;;;;;;3.69;69.77;96235.48;108642;1251;95702;-75
2023/03/15 03:05:38;;;;;;;;;;;;;;;3.70;69.74;96236.94;108816;1251;95711;-77
2023/03/15 03:08:06;;;;;;;;;;;;;;;3.71;69.79;96237.20;108826;1251;103699;-75
2023/03/15 03:10:34;;;;;;;;;;;;;;;3.70;69.82;96235.83;108847;1251;101468;-76
2023/03/15 03:13:02;;;;;;;;;;;;;;;3.69;69.79;96238.31;108775;1251;100083;-76
2023/03/15 03:15:30;;;;;;;;;;;;;;;3.66;69.84;96240.88;108800;1251;95699;-77
2023/03/15 03:17:58;;;;;;;;;;;;;;;3.63;69.73;96243.50;108810;1251;95759;-77
2023/03/15 03:20:26;;;;;;;;;;;;;;;3.58;69.75;96246.17;108802;1251;103561;-76
2023/03/15 03:22:54;;;;;;;;;;;;;;;3.52;69.85;96257.58;108820;1251;101116;-76
2023/03/15 03:25:25;;;;;;;;;;;;;;;3.50;69.89;96262.42;108811;1251;99987;-75
2023/03/15 03:27:55;;;;;;;;;;;;;;;3.49;69.81;96262.55;108798;1254;95539;-76
2023/03/15 03:30:24;;;;;;;;;;;;;;;3.48;69.86;96262.09;108818;1251;95958;-76
2023/03/15 03:32:52;;;;;;;;;;;;;;;3.48;69.87;96263.77;108829;1251;102591;-76
2023/03/15 03:35:23;;;;;;;;;;;;;;;3.50;69.89;96269.35;108588;1250;100657;-75
2023/03/15 03:37:52;;;;;;;;;;;;;;;3.49;69.88;96270.27;108800;1251;100263;-75
2023/03/15 03:40:20;;;;;;;;;;;;;;;3.48;69.91;96272.84;108772;1251;95846;-77
2023/03/15 03:42:48;;;;;;;;;;;;;;;3.52;70.02;96279.23;108812;1251;96591;-78
2023/03/15 03:45:16;;;;;;;;;;;;;;;3.56;69.95;96281.30;108864;1251;103493;-76
2023/03/15 03:47:44;;;;;;;;;;;;;;;3.57;69.83;96281.36;108864;1255;101564;-76
2023/03/15 03:50:12;;;;;;;;;;;;;;;3.59;69.83;96282.15;108841;1251;100245;-76
2023/03/15 03:52:42;;;;;;;;;;;;;;;3.58;69.79;96279.73;108803;1251;95844;-76
2023/03/15 03:55:13;;;;;;;;;;;;;;;3.57;69.90;96283.65;108822;1251;95739;-77
2023/03/15 03:57:42;;;;;;;;;;;;;;;3.57;69.85;96285.22;108877;1250;103544;-76
2023/03/15 04:00:13;;;;;;;;;;;;;;;3.55;69.60;96286.38;108830;1251;101491;-76
2023/03/15 04:02:42;;;;;;;;;;;;;;;3.51;69.62;96292.02;108775;1251;99982;-75
2023/03/15 04:05:11;;;;;;;;;;;;;;;3.48;69.60;96294.04;108807;1251;95805;-78
2023/03/15 04:07:40;;;;;;;;;;;;;;;3.44;69.49;96300.02;108795;1251;95883;-78
2023/03/15 04:10:08;;;;;;;;;;;;;;;3.41;69.56;96303.52;108838;1251;103478;-77
2023/03/15 04:12:36;;;;;;;;;;;;;;;3.40;69.63;96304.32;108661;1251;101511;-77
2023/03/15 04:15:04;;;;;;;;;;;;;;;3.39;69.64;96303.70;108809;1251;98745;-76
2023/03/15 04:17:32;;;;;;;;;;;;;;;3.37;69.67;96308.95;108762;1251;95814;-76
2023/03/15 04:20:04;;;;;;;;;;;;;;;3.34;69.62;96312.55;108796;1251;95718;-74
2023/03/15 04:22:33;;;;;;;;;;;;;;;3.28;69.48;96316.42;108801;1251;103621;-75
2023/03/15 04:25:02;;;;;;;;;;;;;;;3.22;69.49;96313.77;108804;1251;101814;-78
2023/03/15 04:27:30;;;;;;;;;;;;;;;3.16;69.54;96314.39;108781;1251;99991;-79
2023/03/15 04:29:58;;;;;;;;;;;;;;;3.11;69.44;96316.33;108735;1251;95590;-76
2023/03/15 04:32:26;;;;;;;;;;;;;;;3.01;69.63;96318.45;108882;1251;95691;-76
2023/03/15 04:34:54;;;;;;;;;;;;;;;2.97;69.75;96318.65;108785;1251;104571;-75
2023/03/15 04:37:22;;;;;;;;;;;;;;;2.93;69.77;96324.18;108826;1251;101898;-77
2023/03/15 04:39:51;;;;;;;;;;;;;;;2.91;69.89;96331.20;108775;1251;100651;-78
2023/03/15 04:42:19;;;;;;;;;;;;;;;2.91;69.87;96332.98;108795;1251;95861;-76
2023/03/15 04:44:47;;;;;;;;;;;;;;;2.93;69.89;96334.06;108604;1251;95579;-78
2023/03/15 04:47:15;;;;;;;;;;;;;;;2.90;69.74;96336.49;108885;1251;103415;-78
2023/03/15 04:49:43;;;;;;;;;;;;;;;2.87;69.84;96342.22;108606;1251;101373;-77
2023/03/15 04:52:11;;;;;;;;;;;;;;;2.88;70.02;96344.08;108647;1253;100113;-75
2023/03/15 04:54:39;;;;;;;;;;;;;;;2.90;70.06;96348.30;108623;1251;95669;-75
2023/03/15 04:57:07;;;;;;;;;;;;;;;2.92;70.05;96350.09;108877;1251;95661;-75
2023/03/15 04:59:35;;;;;;;;;;;;;;;2.95;69.93;96349.80;108886;1251;102483;-78
2023/03/15 05:02:03;;;;;;;;;;;;;;;2.91;70.01;96350.81;108856;1251;101379;-76
2023/03/15 05:04:31;;;;;;;;;;;;;;;2.90;70.16;96358.02;108605;1251;99870;-76
2023/03/15 05:06:59;;;;;;;;;;;;;;;2.88;70.25;96364.13;108861;1251;95946;-77
2023/03/15 05:09:27;;;;;;;;;;;;;;;2.89;70.36;96366.88;108901;1251;96472;-76
2023/03/15 05:11:55;;;;;;;;;;;;;;;2.84;70.16;96370.64;108710;1251;103713;-75
2023/03/15 05:14:23;;;;;;;;;;;;;;;2.81;70.25;96374.45;108908;1251;100093;-75
2023/03/15 05:16:54;;;;;;;;;;;;;;;2.83;70.38;96384.31;108906;1251;98969;-75
2023/03/15 05:19:22;;;;;;;;;;;;;;;2.91;70.36;96391.33;108888;1251;95562;-75
2023/03/15 05:21:50;;;;;;;;;;;;;;;3.00;70.13;96389.80;108910;1251;95626;-76
2023/03/15 05:24:18;;;;;;;;;;;;;;;3.06;70.15;96391.61;108987;1251;103597;-75
2023/03/15 05:26:46;;;;;;;;;;;;;;;3.09;69.96;96392.47;108934;1251;101615;-75
2023/03/15 05:29:14;;;;;;;;;;;;;;;3.02;69.82;96395.41;108875;1251;99951;-75
2023/03/15 05:31:42;;;;;;;;;;;;;;;2.96;69.54;96396.39;108895;1251;95937;-76
2023/03/15 05:34:11;;;;;;;;;;;;;;;2.92;69.45;96403.77;108931;1251;95721;-76
2023/03/15 05:36:38;;;;;;;;;;;;;;;2.87;69.38;96403.23;108907;1251;103949;-75
2023/03/15 05:39:06;;;;;;;;;;;;;;;2.84;69.35;96405.66;108954;1251;101252;-75
2023/03/15 05:41:35;;;;;;;;;;;;;;;2.81;69.43;96410.95;108865;1251;99638;-77
2023/03/15 05:44:04;;;;;;;;;;;;;;;2.79;69.52;96416.11;108685;1251;95581;-78
2023/03/15 05:46:32;;;;;;;;;;;;;;;2.76;69.57;96421.92;108900;1251;95776;-76
2023/03/15 05:49:00;;;;;;;;;;;;;;;2.74;69.62;96432.08;108911;1251;103200;-75
2023/03/15 05:51:28;;;;;;;;;;;;;;;2.72;69.76;96438.39;108894;1251;102113;-75
2023/03/15 05:53:56;;;;;;;;;;;;;;;2.71;69.75;96442.77;108823;1251;99738;-76
2023/03/15 05:56:24;;;;;;;;;;;;;;;2.71;69.60;96451.93;108837;1251;95643;-77
2023/03/15 05:58:52;;;;;;;;;;;;;;;2.67;69.52;96459.55;108903;1251;95937;-75
2023/03/15 06:01:20;;;;;;;;;;;;;;;2.64;69.68;96465.59;108656;1251;103577;-76
2023/03/15 06:03:48;;;;;;;;;;;;;;;2.62;69.86;96469.67;108911;1251;101304;-76
2023/03/15 06:06:16;;;;;;;;;;;;;;;2.63;70.09;96475.13;108911;1251;99863;-75
2023/03/15 06:08:44;;;;;;;;;;;;;;;2.63;69.99;96474.19;108857;1251;95829;-77
2023/03/15 06:11:12;;;;;;;;;;;;;;;2.60;70.19;96476.67;108860;1251;95792;-75
2023/03/15 06:13:39;;;;;;;;;;;;;;;2.55;70.21;96478.46;108831;1252;102508;-76
2023/03/15 06:16:07;;;;;;;;;;;;;;;2.54;70.35;96476.31;108842;1251;101498;-77
2023/03/15 06:18:38;;;;;;;;;;;;;;;2.56;70.57;96478.38;108862;1251;99926;-76
2023/03/15 06:21:06;;;;;;;;;;;;;;;2.55;70.65;96481.64;108877;1251;95606;-75
2023/03/15 06:23:34;;;;;;;;;;;;;;;2.57;70.53;96485.06;108759;1252;95633;-75
2023/03/15 06:26:02;;;;;;;;;;;;;;;2.54;70.45;96488.31;108871;1251;103900;-75
2023/03/15 06:28:30;;;;;;;;;;;;;;;2.51;70.55;96494.77;108902;1251;101046;-75
2023/03/15 06:30:58;;;;;;;;;;;;;;;2.51;70.51;96500.30;108914;1251;98993;-75
2023/03/15 06:33:26;;;;;;;;;;;;;;;2.52;70.50;96503.38;108829;1251;95703;-77
2023/03/15 06:35:54;;;;;;;;;;;;;;;2.57;70.63;96504.59;108684;1251;95908;-76
2023/03/15 06:38:21;;;;;;;;;;;;;;;2.61;70.41;96511.41;108880;1251;103647;-75
2023/03/15 06:40:49;;;;;;;;;;;;;;;2.60;70.34;96517.74;108917;1251;101501;-76
2023/03/15 06:43:18;;;;;;;;;;;;;;;2.60;70.39;96524.64;108688;1251;99937;-75
2023/03/15 06:45:46;;;;;;;;;;;;;;;2.53;70.42;96527.58;108705;1251;95720;-75
2023/03/15 06:48:14;;;;;;;;;;;;;;;2.48;70.58;96539.48;108913;1251;95645;-75
2023/03/15 06:50:43;;;;;;;;;;;;;;;2.47;70.64;96545.34;108749;1258;103515;-75
2023/03/15 06:53:11;;;;;;;;;;;;;;;2.50;70.82;96542.13;108862;1251;101316;-77
2023/03/15 06:55:39;;;;;;;;;;;;;;;2.56;70.75;96537.69;108863;1251;99705;-79
2023/03/15 06:58:07;;;;;;;;;;;;;;;2.60;70.73;96541.89;108698;1251;95628;-78
2023/03/15 07:00:35;;;;;;;;;;;;;;;2.65;70.65;96541.92;108733;1251;95724;-76
2023/03/15 07:03:03;;;;;;;;;;;;;;;2.73;70.51;96545.25;108864;1251;103611;-77
2023/03/15 07:05:31;;;;;;;;;;;;;;;2.78;70.28;96547.30;108886;1256;100006;-77
2023/03/15 07:07:59;;;;;;;;;;;;;;;2.77;70.25;96551.41;108643;1251;99233;-78
2023/03/15 07:10:27;;;;;;;;;;;;;;;2.77;70.22;96552.22;108860;1251;95973;-76
2023/03/15 07:12:55;;;;;;;;;;;;;;;2.80;70.16;96552.75;108875;1251;95856;-76
2023/03/15 07:15:23;;;;;;;;;;;;;;;2.83;70.02;96557.39;108909;1251;103181;-76
2023/03/15 07:17:51;;;;;;;;;;;;;;;2.78;69.97;96564.71;108895;1251;101342;-78
2023/03/15 07:20:19;;;;;;;;;;;;;;;2.74;70.04;96565.26;108831;1251;99953;-75
2023/03/15 07:22:48;;;;;;;;;;;;;;;2.73;69.89;96569.56;108877;1251;95822;-76
2023/03/15 07:25:22;;;;;;;;;;;;;;;2.72;70.06;96565.14;108915;1251;95615;-75
2023/03/15 07:27:51;;;;;;;;;;;;;;;2.69;69.93;96564.89;108862;1251;103521;-77
2023/03/15 07:30:19;;;;;;;;;;;;;;;2.62;69.80;96567.18;108911;1251;101275;-75
2023/03/15 07:32:47;;;;;;;;;;;;;;;2.53;69.74;96572.79;108808;1251;99626;-76
2023/03/15 07:35:16;;;;;;;;;;;;;;;2.48;69.78;96576.31;108872;1251;95645;-76
2023/03/15 07:37:45;;;;;;;;;;;;;;;2.45;69.64;96577.33;108896;1256;96618;-76
2023/03/15 07:40:14;;;;;;;;;;;;;;;2.44;69.80;96580.46;108675;1252;102549;-77
2023/03/15 07:42:43;;;;;;;;;;;;;;;2.39;69.67;96581.83;108860;1251;101267;-77
2023/03/15 07:45:11;;;;;;;;;;;;;;;2.37;69.87;96585.23;108909;1251;99870;-77
2023/03/15 07:47:39;;;;;;;;;;;;;;;2.34;69.68;96593.17;108835;1251;95509;-76
2023/03/15 07:50:08;;;;;;;;;;;;;;;2.35;69.62;96595.97;108878;1253;95604;-75
2023/03/15 07:52:36;;;;;;;;;;;;;;;2.33;69.71;96598.18;108929;1251;103556;-76
2023/03/15 07:55:07;;;;;;;;;;;;;;;2.30;69.64;96601.73;108848;1255;101244;-75
2023/03/15 07:57:35;;;;;;;;;;;;;;;2.30;69.68;96601.20;108650;1251;99190;-75
2023/03/15 08:00:04;;;;;;;;;;;;;;;2.33;69.80;96604.50;108737;1255;212245;-76
2023/03/15 08:02:32;;;;;;;;;;;;;;;2.40;69.83;96599.83;108920;1251;95638;-75
2023/03/15 08:05:00;;;;;;;;;;;;;;;2.47;69.61;96602.31;108913;1251;103600;-75
2023/03/15 08:07:28;;;;;;;;;;;;;;;2.50;69.68;96606.36;108900;1251;101266;-75
2023/03/15 08:09:57;;;;;;;;;;;;;;;2.56;69.69;96609.86;108762;1254;100119;-75
2023/03/15 08:12:25;;;;;;;;;;;;;;;2.63;69.67;96605.84;108773;1254;95646;-75
2023/03/15 08:14:53;;;;;;;;;;;;;;;2.66;69.29;96605.56;108915;1250;95665;-75
2023/03/15 08:17:21;;;;;;;;;;;;;;;2.71;69.22;96604.52;108918;1251;103043;-76
2023/03/15 08:19:49;;;;;;;;;;;;;;;2.78;68.99;96604.52;108881;1251;101314;-76
2023/03/15 08:22:17;;;;;;;;;;;;;;;2.86;68.86;96605.83;108881;1251;98410;-76
2023/03/15 08:24:45;;;;;;;;;;;;;;;2.87;68.50;96604.20;108846;1251;95525;-76
2023/03/15 08:27:13;;;;;;;;;;;;;;;2.85;68.44;96605.95;108896;1251;95570;-75
2023/03/15 08:29:41;;;;;;;;;;;;;;;2.89;68.33;96610.14;108896;1251;103474;-75
2023/03/15 08:32:09;;;;;;;;;;;;;;;2.94;68.33;96611.02;108692;1251;110115;-77
2023/03/15 08:34:37;;;;;;;;;;;;;;;2.99;67.94;96617.84;108838;1251;99586;-78
2023/03/15 08:37:05;;;;;;;;;;;;;;;3.01;67.99;96616.80;108862;1251;95506;-75
2023/03/15 08:39:35;;;;;;;;;;;;;;;3.05;67.80;96616.85;108940;1251;95961;-76
2023/03/15 08:42:03;;;;;;;;;;;;;;;3.12;67.68;96617.41;108914;1251;103574;-76
2023/03/15 08:44:31;;;;;;;;;;;;;;;3.13;67.53;96618.38;108918;1251;100489;-76
2023/03/15 08:46:59;;;;;;;;;;;;;;;3.12;67.59;96625.26;108912;1251;100431;-77
2023/03/15 08:49:27;;;;;;;;;;;;;;;3.14;67.49;96630.02;108581;1257;95652;-75
2023/03/15 08:51:55;;;;;;;;;;;;;;;3.14;67.17;96633.27;108908;1251;96108;-76
2023/03/15 08:54:24;;;;;;;;;;;;;;;3.15;67.14;96637.21;108851;1255;103961;-76
2023/03/15 08:56:52;;;;;;;;;;;;;;;3.22;67.22;96639.03;108917;1251;101479;-76
2023/03/15 08:59:20;;;;;;;;;;;;;;;3.30;67.05;96640.77;108894;1251;99891;-77
2023/03/15 09:01:48;;;;;;;;;;;;;;;3.30;66.77;96640.81;108919;1251;95514;-76
2023/03/15 09:04:16;;;;;;;;;;;;;;;3.29;66.65;96645.20;108869;1251;95541;-75
2023/03/15 09:06:44;;;;;;;;;;;;;;;3.30;66.51;96649.18;108839;1251;103434;-75
2023/03/15 09:09:16;;;;;;;;;;;;;;;3.27;66.38;96650.31;108933;1251;101470;-75
2023/03/15 09:11:44;;;;;;;;;;;;;;;3.19;66.17;96656.60;108909;1251;99808;-76
2023/03/15 09:14:12;;;;;;;;;;;;;;;3.12;66.14;96655.39;108875;1251;95553;-75
2023/03/15 09:16:40;;;;;;;;;;;;;;;3.10;66.25;96657.95;108910;1251;95644;-76
2023/03/15 09:19:08;;;;;;;;;;;;;;;3.09;66.05;96656.22;108925;1251;103434;-75
2023/03/15 09:21:36;;;;;;;;;;;;;;;3.11;66.23;96657.65;108924;1251;101432;-75
2023/03/15 09:24:04;;;;;;;;;;;;;;;3.20;66.09;96657.45;108870;1251;100211;-78
2023/03/15 09:26:32;;;;;;;;;;;;;;;3.24;65.78;96656.40;108863;1251;95516;-77
2023/03/15 09:29:00;;;;;;;;;;;;;;;3.33;65.77;96656.95;108905;1251;95712;-76
2023/03/15 09:31:28;;;;;;;;;;;;;;;3.43;65.54;96661.94;108722;1252;103447;-77
2023/03/15 09:33:57;;;;;;;;;;;;;;;3.49;65.56;96661.86;108662;1251;102502;-75
2023/03/15 09:36:25;;;;;;;;;;;;;;;3.56;65.34;96662.80;108852;1251;100362;-76
2023/03/15 09:38:53;;;;;;;;;;;;;;;3.62;65.14;96670.81;108913;1251;95541;-77
2023/03/15 09:41:39;;;;;;;;;;;;;;;3.65;64.83;96669.58;108951;1251;95631;-78
2023/03/15 09:44:10;;;;;;;;;;;;;;;3.69;64.50;96670.39;108962;1251;103525;-75
2023/03/15 09:46:58;;;;;;;;;;;;;;;3.72;64.29;96673.00;108720;1251;101575;-77
2023/03/15 09:49:45;;;;;;;;;;;;;;;3.76;64.13;96677.48;108388;1257;98704;-76
2023/03/15 09:52:31;;;;;;;;;;;;;;;3.85;64.01;96675.74;108353;1257;95658;-75
2023/03/15 09:55:11;;;;;;;;;;;;;;;3.95;63.54;96679.56;108372;1257;95643;-75
2023/03/15 09:57:47;;;;;;;;;;;;;;;4.02;63.27;96679.30;108374;1257;103704;-76
2023/03/15 10:00:19;;;;;;;;;;;;;;;4.09;63.35;96679.30;108310;1261;101067;-77
2023/03/15 10:02:58;;;;;;;;;;;;;;;4.18;63.29;96683.73;108354;1257;100253;-77
2023/03/15 10:05:31;;;;;;;;;;;;;;;4.24;63.17;96687.36;108354;1257;97253;-76
2023/03/15 10:07:59;;;;;;;;;;;;;;;4.27;62.91;96689.48;108273;1257;96155;-76
2023/03/15 10:10:36;;;;;;;;;;;;;;;4.28;62.94;96687.31;108279;1257;103771;-77
2023/03/15 10:13:07;;;;;;;;;;;;;;;4.27;62.96;96691.86;108397;1257;101430;-75
2023/03/15 10:15:35;;;;;;;;;;;;;;;4.27;62.54;96695.56;108390;1257;99930;-75
2023/03/15 10:18:15;;;;;;;;;;;;;;;4.26;62.41;96698.85;108347;1257;95622;-76
2023/03/15 10:20:50;;;;;;;;;;;;;;;4.24;62.18;96700.38;108365;1257;95756;-76
2023/03/15 10:23:20;;;;;;;;;;;;;;;4.14;61.72;96701.83;108403;1257;102585;-76
2023/03/15 10:25:50;;;;;;;;;;;;;;;4.05;61.88;96704.94;108393;1257;101057;-77
2023/03/15 10:28:26;;;;;;;;;;;;;;;4.05;61.55;96707.56;108907;1251;99783;-76
2023/03/15 10:30:54;;;;;;;;;;;;;;;4.00;61.43;96711.41;108845;1251;95623;-76
2023/03/15 10:33:34;;;;;;;;;;;;;;;3.97;61.62;96710.85;108681;1251;96598;-76
2023/03/15 10:36:03;;;;;;;;;;;;;;;4.01;61.55;96706.44;108892;1251;103524;-76
2023/03/15 10:38:31;;;;;;;;;;;;;;;4.00;61.45;96711.86;108942;1251;101275;-78
2023/03/15 10:40:59;;;;;;;;;;;;;;;4.08;61.36;96716.06;108927;1251;100240;-76
2023/03/15 10:43:34;;;;;;;;;;;;;;;4.23;61.23;96720.30;108693;1251;95668;-76
2023/03/15 10:46:07;;;;;;;;;;;;;;;4.40;60.94;96717.99;108947;1251;95524;-76
2023/03/15 10:48:36;;;;;;;;;;;;;;;4.50;60.55;96719.65;108848;1251;103657;-76
2023/03/15 10:51:06;;;;;;;;;;;;;;;4.55;60.41;96726.61;108920;1251;101621;-77
2023/03/15 10:53:34;;;;;;;;;;;;;;;4.66;60.09;96729.12;108888;1251;99951;-76
2023/03/15 10:56:05;;;;;;;;;;;;;;;4.78;60.04;96725.77;108703;1251;95646;-77
2023/03/15 10:58:46;;;;;;;;;;;;;;;4.83;59.94;96726.20;108947;1251;95614;-78
2023/03/15 11:01:23;;;;;;;;;;;;;;;4.79;59.72;96726.53;108904;1251;103198;-76
2023/03/15 11:04:14;;;;;;;;;;;;;;;4.80;59.46;96729.66;108921;1251;101245;-76
2023/03/15 11:07:02;;;;;;;;;;;;;;;4.85;59.48;96727.23;108356;1257;100063;-76
2023/03/15 11:09:43;;;;;;;;;;;;;;;4.96;59.26;96723.75;108390;1257;95558;-76
2023/03/15 11:12:16;;;;;;;;;;;;;;;4.91;59.08;96719.14;108362;1257;95815;-77
2023/03/15 11:14:46;;;;;;;;;;;;;;;4.78;58.65;96720.55;108425;1257;103678;-78
2023/03/15 11:17:18;;;;;;;;;;;;;;;4.71;58.91;96722.34;108413;1257;99610;-76
2023/03/15 11:20:12;;;;;;;;;;;;;;;4.75;58.80;96722.50;108429;1257;100098;-77
2023/03/15 11:22:40;;;;;;;;;;;;;;;4.77;58.52;96725.31;108407;1257;96325;-77
2023/03/15 11:25:15;;;;;;;;;;;;;;;4.80;58.27;96725.10;108377;1257;96060;-76
2023/03/15 11:27:45;;;;;;;;;;;;;;;4.81;58.22;96723.83;108408;1256;102585;-76
2023/03/15 11:30:14;;;;;;;;;;;;;;;4.78;58.22;96725.57;108255;1257;101409;-76
2023/03/15 11:32:43;;;;;;;;;;;;;;;4.76;57.72;96732.95;108383;1257;100019;-76
2023/03/15 11:35:18;;;;;;;;;;;;;;;4.74;57.90;96735.85;108254;1256;95616;-78
2023/03/15 11:37:49;;;;;;;;;;;;;;;4.78;57.85;96733.91;108433;1257;96102;-77
2023/03/15 11:40:23;;;;;;;;;;;;;;;4.83;57.81;96736.14;108394;1257;103579;-76
2023/03/15 11:42:56;;;;;;;;;;;;;;;4.91;57.60;96734.04;108409;1257;101388;-77
2023/03/15 11:45:30;;;;;;;;;;;;;;;5.02;57.63;96733.02;108915;1251;98964;-78
2023/03/15 11:48:03;;;;;;;;;;;;;;;5.04;57.44;96739.02;108957;1251;95793;-76
2023/03/15 11:50:31;;;;;;;;;;;;;;;5.03;57.45;96735.05;108900;1251;95650;-78
2023/03/15 11:53:02;;;;;;;;;;;;;;;5.09;57.52;96737.61;108940;1251;102054;-76
2023/03/15 11:55:32;;;;;;;;;;;;;;;5.05;57.13;96741.77;108635;1254;101480;-77
2023/03/15 11:58:20;;;;;;;;;;;;;;;4.96;57.24;96741.67;108848;1251;100205;-76
2023/03/15 12:00:49;;;;;;;;;;;;;;;5.02;57.52;96741.19;108914;1251;95857;-76
2023/03/15 12:03:36;;;;;;;;;;;;;;;5.14;57.74;96744.69;108913;1251;95594;-77
2023/03/15 12:06:07;;;;;;;;;;;;;;;5.28;57.56;96746.27;108909;1250;103080;-75
2023/03/15 12:08:54;;;;;;;;;;;;;;;5.38;57.11;96742.48;108913;1251;111013;-76
2023/03/15 12:11:22;;;;;;;;;;;;;;;5.45;56.72;96741.63;108952;1251;99902;-76
2023/03/15 12:14:03;;;;;;;;;;;;;;;5.51;56.25;96741.42;108917;1251;95524;-77
2023/03/15 12:16:33;;;;;;;;;;;;;;;5.51;56.10;96741.66;108917;1251;95698;-76
2023/03/15 12:19:03;;;;;;;;;;;;;;;5.37;55.64;96739.06;108912;1251;103521;-76
2023/03/15 12:21:32;;;;;;;;;;;;;;;5.31;55.70;96738.81;108905;1251;101548;-77
2023/03/15 12:24:02;;;;;;;;;;;;;;;5.30;55.66;96738.93;108925;1251;100077;-76
2023/03/15 12:26:51;;;;;;;;;;;;;;;5.33;55.46;96738.78;108896;1251;95534;-77
2023/03/15 12:29:27;;;;;;;;;;;;;;;5.34;55.41;96739.81;108932;1251;95786;-78
2023/03/15 12:32:00;;;;;;;;;;;;;;;5.33;55.01;96744.54;108959;1251;103397;-76
2023/03/15 12:34:28;;;;;;;;;;;;;;;5.32;55.10;96742.96;108934;1251;101023;-78
2023/03/15 12:36:59;;;;;;;;;;;;;;;5.26;55.01;96742.77;108911;1251;100090;-77
2023/03/15 12:39:39;;;;;;;;;;;;;;;5.14;54.82;96741.18;108902;1251;95518;-76
2023/03/15 12:42:12;;;;;;;;;;;;;;;5.06;54.69;96741.66;108713;1252;95636;-76
2023/03/15 12:44:42;;;;;;;;;;;;;;;4.94;54.51;96741.42;108930;1251;103376;-77
2023/03/15 12:47:11;;;;;;;;;;;;;;;4.90;54.59;96742.80;108939;1251;101677;-78
2023/03/15 12:49:41;;;;;;;;;;;;;;;4.97;55.03;96744.42;108623;1252;99917;-77
2023/03/15 12:52:12;;;;;;;;;;;;;;;5.11;54.81;96744.88;108804;1251;95539;-77
2023/03/15 12:54:47;;;;;;;;;;;;;;;5.18;54.32;96745.59;108962;1251;95635;-77
2023/03/15 12:57:20;;;;;;;;;;;;;;;5.28;54.19;96744.14;108962;1251;102664;-76